Список аэропортов
Фактическая погода:

26 апреля, 12:00
Температура: +7°C (+5.7*)
Ветер: юго-западный 2 м/с
Давление: *747 мм
облачно
600 м
Время (МСК)Темп. СВетерВлажностьДавлениеОблачностьОсадки
08:00+3ЮВ, 3 м/с87%996 гПаоблачно
09:00+4ЮВ, 3 м/с81%996 гПаоблачно
10:00+7ЮВ, 3 м/с71%996 гПамалооблачно
11:00+9Ю, 3 м/с65%996 гПамалооблачно
12:00+10Ю, 3 м/с62%996 гПамалооблачно
13:00+10Ю, 3 м/с61%996 гПамалооблачно
14:00+10Ю, 3 м/с61%996 гПаоблачно
15:00+9Ю, 3 м/с64%996 гПаоблачно
16:00+8ЮВ, 3 м/с71%996 гПаоблачно
17:00+7ЮВ, 2 м/с80%996 гПаоблачносл. дождь
18:00+6ЮВ, 2 м/с86%996 гПаоблачно
19:00+5ЮВ, 2 м/с91%996 гПаоблачно
20:00+4ЮВ, 2 м/с96%996 гПаоблачно
21:00+3ЮВ, 2 м/с96%996 гПаоблачно
22:00+3ЮВ, 2 м/с96%996 гПаоблачно
23:00+3ЮВ, 2 м/с98%996 гПаоблачно
27 апреля
00:00+3ЮВ, 1 м/с99%996 гПаоблачносл. дождь
01:00+3ЮВ, 1 м/с99%997 гПаоблачнодождь
02:00+2ЮВ, 1 м/с99%996 гПаоблачнодождь
03:00+2ЮВ, 1 м/с99%997 гПаоблачносл. дождь
04:00+2ЮВ, 1 м/с100%997 гПаоблачно
05:00+3ЮВ, 1 м/с99%997 гПаоблачно
06:00+4ЮВ, 1 м/с99%997 гПаоблачно
07:00+4ЮВ, 1 м/с98%998 гПаоблачно
08:00+5ЮВ, 1 м/с98%998 гПаоблачно
09:00+6Ю, 1 м/с95%998 гПаоблачно
10:00+8ЮВ, 1 м/с92%999 гПас прояснениями
11:00+9ЮВ, 1 м/с83%999 гПас прояснениями
12:00+11ЮВ, 1 м/с66%999 гПас прояснениями
13:00+12Штиль 61%1000 гПаоблачно
14:00+12С, 1 м/с55%1000 гПаоблачно
15:00+12СВ, 1 м/с54%1000 гПаоблачно
16:00+11СВ, 1 м/с55%1000 гПаоблачно
17:00+10СВ, 1 м/с62%1001 гПаоблачно
18:00+8В, 1 м/с85%1001 гПаоблачносл. дождь
19:00+6Штиль 91%1001 гПаоблачно
20:00+3СЗ, 1 м/с92%1001 гПаоблачно
21:00+2С, 1 м/с97%1002 гПаоблачно
22:00+1С, 1 м/с97%1002 гПаоблачно
23:00-0С, 1 м/с98%1002 гПаоблачно
28 апреля
00:00-1С, 1 м/с98%1002 гПаоблачно
01:00-1С, 1 м/с98%1002 гПаоблачно
02:00-2СЗ, 1 м/с98%1003 гПаоблачно
03:00-1СЗ, 1 м/с98%1003 гПаоблачно
04:00-1С, 1 м/с98%1003 гПаоблачносл. снег
05:000С, 1 м/с96%1004 гПаоблачно
06:00+1С, 1 м/с95%1004 гПаоблачно
07:00+2С, 2 м/с91%1005 гПаоблачно
08:00+4С, 2 м/с84%1005 гПаоблачно